sensor_id;sensor_type;location;lat;lon;timestamp;P1;durP1;ratioP1;P2;durP2;ratioP2
26538;SDS011;14205;43.200;24.170;2023-07-30T00:01:38;4.32;;;1.60;;
26538;SDS011;14205;43.200;24.170;2023-07-30T00:04:04;2.17;;;1.40;;
26538;SDS011;14205;43.200;24.170;2023-07-30T00:06:29;6.43;;;1.92;;
26538;SDS011;14205;43.200;24.170;2023-07-30T00:08:55;2.95;;;1.83;;
26538;SDS011;14205;43.200;24.170;2023-07-30T00:11:20;6.68;;;2.20;;
26538;SDS011;14205;43.200;24.170;2023-07-30T00:13:45;2.55;;;1.80;;
26538;SDS011;14205;43.200;24.170;2023-07-30T00:16:11;3.78;;;1.80;;
26538;SDS011;14205;43.200;24.170;2023-07-30T00:18:36;2.97;;;1.90;;
26538;SDS011;14205;43.200;24.170;2023-07-30T00:21:02;3.40;;;1.90;;
26538;SDS011;14205;43.200;24.170;2023-07-30T00:23:27;4.43;;;2.10;;
26538;SDS011;14205;43.200;24.170;2023-07-30T00:25:52;3.47;;;1.85;;
26538;SDS011;14205;43.200;24.170;2023-07-30T00:28:18;3.20;;;1.85;;
26538;SDS011;14205;43.200;24.170;2023-07-30T00:30:43;3.85;;;1.75;;
26538;SDS011;14205;43.200;24.170;2023-07-30T00:33:09;2.80;;;1.67;;
26538;SDS011;14205;43.200;24.170;2023-07-30T00:35:34;3.42;;;1.60;;
26538;SDS011;14205;43.200;24.170;2023-07-30T00:37:59;5.57;;;1.98;;
26538;SDS011;14205;43.200;24.170;2023-07-30T00:40:25;5.32;;;2.13;;
26538;SDS011;14205;43.200;24.170;2023-07-30T00:42:50;2.83;;;1.92;;
26538;SDS011;14205;43.200;24.170;2023-07-30T00:45:16;5.10;;;1.67;;
26538;SDS011;14205;43.200;24.170;2023-07-30T00:47:41;2.70;;;1.80;;
26538;SDS011;14205;43.200;24.170;2023-07-30T00:50:07;4.25;;;2.00;;
26538;SDS011;14205;43.200;24.170;2023-07-30T00:52:34;5.03;;;1.75;;
26538;SDS011;14205;43.200;24.170;2023-07-30T00:55:01;4.53;;;2.33;;
26538;SDS011;14205;43.200;24.170;2023-07-30T00:57:28;3.45;;;1.52;;
26538;SDS011;14205;43.200;24.170;2023-07-30T00:59:53;7.15;;;1.88;;
26538;SDS011;14205;43.200;24.170;2023-07-30T01:02:21;4.47;;;1.98;;
26538;SDS011;14205;43.200;24.170;2023-07-30T01:04:46;4.18;;;2.00;;
26538;SDS011;14205;43.200;24.170;2023-07-30T01:07:12;4.70;;;1.88;;
26538;SDS011;14205;43.200;24.170;2023-07-30T01:09:37;4.43;;;2.00;;
26538;SDS011;14205;43.200;24.170;2023-07-30T01:12:03;3.63;;;1.88;;
26538;SDS011;14205;43.200;24.170;2023-07-30T01:14:30;3.63;;;1.80;;
26538;SDS011;14205;43.200;24.170;2023-07-30T01:16:57;2.95;;;1.92;;
26538;SDS011;14205;43.200;24.170;2023-07-30T01:19:22;4.45;;;1.95;;
26538;SDS011;14205;43.200;24.170;2023-07-30T01:21:48;2.50;;;1.60;;
26538;SDS011;14205;43.200;24.170;2023-07-30T01:24:13;2.95;;;1.75;;
26538;SDS011;14205;43.200;24.170;2023-07-30T01:29:27;3.50;;;2.00;;
26538;SDS011;14205;43.200;24.170;2023-07-30T01:31:59;2.40;;;1.70;;
26538;SDS011;14205;43.200;24.170;2023-07-30T01:34:28;4.05;;;2.10;;
26538;SDS011;14205;43.200;24.170;2023-07-30T01:36:55;5.05;;;1.92;;
26538;SDS011;14205;43.200;24.170;2023-07-30T01:39:23;3.13;;;1.85;;
26538;SDS011;14205;43.200;24.170;2023-07-30T01:41:49;3.90;;;2.00;;
26538;SDS011;14205;43.200;24.170;2023-07-30T01:44:14;3.88;;;2.05;;
26538;SDS011;14205;43.200;24.170;2023-07-30T01:46:40;4.05;;;2.03;;
26538;SDS011;14205;43.200;24.170;2023-07-30T01:49:05;3.55;;;2.00;;
26538;SDS011;14205;43.200;24.170;2023-07-30T01:51:30;3.45;;;1.70;;
26538;SDS011;14205;43.200;24.170;2023-07-30T01:53:56;4.00;;;2.17;;
26538;SDS011;14205;43.200;24.170;2023-07-30T01:56:21;3.22;;;2.10;;
26538;SDS011;14205;43.200;24.170;2023-07-30T01:58:47;4.20;;;2.00;;
26538;SDS011;14205;43.200;24.170;2023-07-30T02:01:12;3.33;;;1.85;;
26538;SDS011;14205;43.200;24.170;2023-07-30T02:03:38;2.90;;;1.70;;
26538;SDS011;14205;43.200;24.170;2023-07-30T02:06:03;3.80;;;2.08;;
26538;SDS011;14205;43.200;24.170;2023-07-30T02:08:28;3.08;;;2.10;;
26538;SDS011;14205;43.200;24.170;2023-07-30T02:11:00;3.25;;;2.10;;
26538;SDS011;14205;43.200;24.170;2023-07-30T02:13:25;3.67;;;1.80;;
26538;SDS011;14205;43.200;24.170;2023-07-30T02:15:51;3.85;;;1.95;;
26538;SDS011;14205;43.200;24.170;2023-07-30T02:18:17;3.17;;;1.77;;
26538;SDS011;14205;43.200;24.170;2023-07-30T02:20:42;3.85;;;1.98;;
26538;SDS011;14205;43.200;24.170;2023-07-30T02:23:08;3.55;;;2.05;;
26538;SDS011;14205;43.200;24.170;2023-07-30T02:25:34;4.30;;;1.90;;
26538;SDS011;14205;43.200;24.170;2023-07-30T02:28:00;2.65;;;1.77;;
26538;SDS011;14205;43.200;24.170;2023-07-30T02:30:26;2.53;;;1.92;;
26538;SDS011;14205;43.200;24.170;2023-07-30T02:32:52;5.50;;;1.95;;
26538;SDS011;14205;43.200;24.170;2023-07-30T02:35:17;3.95;;;2.00;;
26538;SDS011;14205;43.200;24.170;2023-07-30T02:37:43;6.03;;;1.98;;
26538;SDS011;14205;43.200;24.170;2023-07-30T02:40:08;2.85;;;1.80;;
26538;SDS011;14205;43.200;24.170;2023-07-30T02:42:34;3.30;;;1.83;;
26538;SDS011;14205;43.200;24.170;2023-07-30T02:45:00;3.25;;;1.85;;
26538;SDS011;14205;43.200;24.170;2023-07-30T02:47:25;4.43;;;1.70;;
26538;SDS011;14205;43.200;24.170;2023-07-30T02:49:51;4.05;;;1.98;;
26538;SDS011;14205;43.200;24.170;2023-07-30T02:52:16;3.08;;;1.90;;
26538;SDS011;14205;43.200;24.170;2023-07-30T02:54:41;4.80;;;1.65;;
26538;SDS011;14205;43.200;24.170;2023-07-30T02:57:07;3.20;;;2.17;;
26538;SDS011;14205;43.200;24.170;2023-07-30T02:59:32;3.55;;;1.95;;
26538;SDS011;14205;43.200;24.170;2023-07-30T03:02:01;3.42;;;1.70;;
26538;SDS011;14205;43.200;24.170;2023-07-30T03:04:27;4.60;;;1.90;;
26538;SDS011;14205;43.200;24.170;2023-07-30T03:06:52;2.78;;;1.60;;
26538;SDS011;14205;43.200;24.170;2023-07-30T03:09:18;2.72;;;1.67;;
26538;SDS011;14205;43.200;24.170;2023-07-30T03:11:43;4.75;;;2.22;;
26538;SDS011;14205;43.200;24.170;2023-07-30T03:14:09;2.95;;;2.22;;
26538;SDS011;14205;43.200;24.170;2023-07-30T03:16:34;3.28;;;2.20;;
26538;SDS011;14205;43.200;24.170;2023-07-30T03:18:59;3.67;;;2.10;;
26538;SDS011;14205;43.200;24.170;2023-07-30T03:21:25;4.43;;;1.90;;
26538;SDS011;14205;43.200;24.170;2023-07-30T03:23:50;2.88;;;2.08;;
26538;SDS011;14205;43.200;24.170;2023-07-30T03:26:16;4.07;;;1.75;;
26538;SDS011;14205;43.200;24.170;2023-07-30T03:28:41;3.00;;;1.80;;
26538;SDS011;14205;43.200;24.170;2023-07-30T03:31:06;4.60;;;2.03;;
26538;SDS011;14205;43.200;24.170;2023-07-30T03:33:32;4.13;;;2.47;;
26538;SDS011;14205;43.200;24.170;2023-07-30T03:35:58;2.78;;;2.00;;
26538;SDS011;14205;43.200;24.170;2023-07-30T03:38:24;4.00;;;2.90;;
26538;SDS011;14205;43.200;24.170;2023-07-30T03:40:49;3.97;;;2.10;;
26538;SDS011;14205;43.200;24.170;2023-07-30T03:43:15;2.97;;;2.03;;
26538;SDS011;14205;43.200;24.170;2023-07-30T03:45:40;3.28;;;2.30;;
26538;SDS011;14205;43.200;24.170;2023-07-30T03:48:06;4.18;;;2.03;;
26538;SDS011;14205;43.200;24.170;2023-07-30T03:50:31;3.63;;;2.15;;
26538;SDS011;14205;43.200;24.170;2023-07-30T03:52:56;3.50;;;1.80;;
26538;SDS011;14205;43.200;24.170;2023-07-30T03:55:23;4.03;;;2.05;;
26538;SDS011;14205;43.200;24.170;2023-07-30T03:57:49;2.95;;;2.00;;
26538;SDS011;14205;43.200;24.170;2023-07-30T04:00:14;3.05;;;1.95;;
26538;SDS011;14205;43.200;24.170;2023-07-30T04:02:40;4.03;;;2.00;;
26538;SDS011;14205;43.200;24.170;2023-07-30T04:05:05;4.50;;;2.03;;
26538;SDS011;14205;43.200;24.170;2023-07-30T04:07:31;5.05;;;2.00;;
26538;SDS011;14205;43.200;24.170;2023-07-30T04:09:56;6.28;;;1.98;;
26538;SDS011;14205;43.200;24.170;2023-07-30T04:12:22;4.60;;;1.77;;
26538;SDS011;14205;43.200;24.170;2023-07-30T04:14:48;6.22;;;2.22;;
26538;SDS011;14205;43.200;24.170;2023-07-30T04:17:13;2.17;;;1.60;;
26538;SDS011;14205;43.200;24.170;2023-07-30T04:19:38;2.45;;;1.98;;
26538;SDS011;14205;43.200;24.170;2023-07-30T04:22:04;5.25;;;1.92;;
26538;SDS011;14205;43.200;24.170;2023-07-30T04:24:29;3.40;;;1.83;;
26538;SDS011;14205;43.200;24.170;2023-07-30T04:26:55;3.05;;;1.98;;
26538;SDS011;14205;43.200;24.170;2023-07-30T04:29:20;3.85;;;1.50;;
26538;SDS011;14205;43.200;24.170;2023-07-30T04:31:45;3.08;;;1.60;;
26538;SDS011;14205;43.200;24.170;2023-07-30T04:34:11;4.43;;;1.80;;
26538;SDS011;14205;43.200;24.170;2023-07-30T04:36:36;2.90;;;1.73;;
26538;SDS011;14205;43.200;24.170;2023-07-30T04:39:02;3.10;;;1.73;;
26538;SDS011;14205;43.200;24.170;2023-07-30T04:41:27;5.15;;;1.90;;
26538;SDS011;14205;43.200;24.170;2023-07-30T04:43:53;3.95;;;1.90;;
26538;SDS011;14205;43.200;24.170;2023-07-30T04:46:18;2.22;;;1.42;;
26538;SDS011;14205;43.200;24.170;2023-07-30T04:48:44;2.53;;;1.50;;
26538;SDS011;14205;43.200;24.170;2023-07-30T04:51:09;3.28;;;1.73;;
26538;SDS011;14205;43.200;24.170;2023-07-30T04:53:35;3.58;;;1.70;;
26538;SDS011;14205;43.200;24.170;2023-07-30T04:56:00;2.33;;;1.45;;
26538;SDS011;14205;43.200;24.170;2023-07-30T04:58:25;2.67;;;1.40;;
26538;SDS011;14205;43.200;24.170;2023-07-30T05:00:51;3.10;;;1.80;;
26538;SDS011;14205;43.200;24.170;2023-07-30T05:03:16;4.75;;;1.88;;
26538;SDS011;14205;43.200;24.170;2023-07-30T05:05:42;2.42;;;1.83;;
26538;SDS011;14205;43.200;24.170;2023-07-30T05:08:07;3.92;;;1.95;;
26538;SDS011;14205;43.200;24.170;2023-07-30T05:10:33;3.85;;;1.85;;
26538;SDS011;14205;43.200;24.170;2023-07-30T05:12:58;2.78;;;1.67;;
26538;SDS011;14205;43.200;24.170;2023-07-30T05:15:23;2.78;;;1.90;;
26538;SDS011;14205;43.200;24.170;2023-07-30T05:17:49;4.38;;;1.73;;
26538;SDS011;14205;43.200;24.170;2023-07-30T05:20:14;3.85;;;1.70;;
26538;SDS011;14205;43.200;24.170;2023-07-30T05:22:40;2.10;;;1.48;;
26538;SDS011;14205;43.200;24.170;2023-07-30T05:25:05;2.88;;;1.90;;
26538;SDS011;14205;43.200;24.170;2023-07-30T05:27:31;3.20;;;1.88;;
26538;SDS011;14205;43.200;24.170;2023-07-30T05:29:57;5.25;;;4.65;;
26538;SDS011;14205;43.200;24.170;2023-07-30T05:32:22;3.97;;;1.65;;
26538;SDS011;14205;43.200;24.170;2023-07-30T05:34:48;3.95;;;1.80;;
26538;SDS011;14205;43.200;24.170;2023-07-30T05:37:13;3.28;;;2.33;;
26538;SDS011;14205;43.200;24.170;2023-07-30T05:39:39;3.55;;;2.42;;
26538;SDS011;14205;43.200;24.170;2023-07-30T05:42:04;6.68;;;2.90;;
26538;SDS011;14205;43.200;24.170;2023-07-30T05:44:29;4.82;;;2.50;;
26538;SDS011;14205;43.200;24.170;2023-07-30T05:46:55;3.90;;;2.03;;
26538;SDS011;14205;43.200;24.170;2023-07-30T05:49:20;4.53;;;2.47;;
26538;SDS011;14205;43.200;24.170;2023-07-30T05:51:46;4.95;;;2.50;;
26538;SDS011;14205;43.200;24.170;2023-07-30T05:54:12;4.80;;;1.88;;
26538;SDS011;14205;43.200;24.170;2023-07-30T05:56:37;4.20;;;2.15;;
26538;SDS011;14205;43.200;24.170;2023-07-30T05:59:03;5.78;;;2.08;;
26538;SDS011;14205;43.200;24.170;2023-07-30T06:01:28;3.03;;;2.00;;
26538;SDS011;14205;43.200;24.170;2023-07-30T06:03:54;3.45;;;2.10;;
26538;SDS011;14205;43.200;24.170;2023-07-30T06:06:19;2.55;;;1.60;;
26538;SDS011;14205;43.200;24.170;2023-07-30T06:08:51;4.20;;;1.97;;
26538;SDS011;14205;43.200;24.170;2023-07-30T06:11:17;8.23;;;2.53;;
26538;SDS011;14205;43.200;24.170;2023-07-30T06:13:43;9.48;;;1.92;;
26538;SDS011;14205;43.200;24.170;2023-07-30T06:16:09;2.42;;;1.60;;
26538;SDS011;14205;43.200;24.170;2023-07-30T06:18:35;2.78;;;1.70;;
26538;SDS011;14205;43.200;24.170;2023-07-30T06:21:00;2.92;;;1.80;;
26538;SDS011;14205;43.200;24.170;2023-07-30T06:23:26;5.07;;;1.77;;
26538;SDS011;14205;43.200;24.170;2023-07-30T06:25:51;2.33;;;1.60;;
26538;SDS011;14205;43.200;24.170;2023-07-30T06:28:17;3.80;;;1.65;;
26538;SDS011;14205;43.200;24.170;2023-07-30T06:30:42;2.25;;;1.50;;
26538;SDS011;14205;43.200;24.170;2023-07-30T06:33:08;5.85;;;1.67;;
26538;SDS011;14205;43.200;24.170;2023-07-30T06:35:33;5.32;;;1.83;;
26538;SDS011;14205;43.200;24.170;2023-07-30T06:37:59;2.63;;;1.38;;
26538;SDS011;14205;43.200;24.170;2023-07-30T06:40:24;2.65;;;1.45;;
26538;SDS011;14205;43.200;24.170;2023-07-30T06:42:50;2.83;;;1.35;;
26538;SDS011;14205;43.200;24.170;2023-07-30T06:45:15;1.95;;;1.40;;
26538;SDS011;14205;43.200;24.170;2023-07-30T06:47:41;2.03;;;1.20;;
26538;SDS011;14205;43.200;24.170;2023-07-30T06:50:06;3.10;;;1.60;;
26538;SDS011;14205;43.200;24.170;2023-07-30T06:52:35;4.00;;;1.27;;
26538;SDS011;14205;43.200;24.170;2023-07-30T06:55:01;2.58;;;1.67;;
26538;SDS011;14205;43.200;24.170;2023-07-30T06:57:28;3.10;;;1.20;;
26538;SDS011;14205;43.200;24.170;2023-07-30T06:59:54;2.90;;;1.52;;
26538;SDS011;14205;43.200;24.170;2023-07-30T07:02:19;1.98;;;1.30;;
26538;SDS011;14205;43.200;24.170;2023-07-30T07:04:45;2.72;;;1.40;;
26538;SDS011;14205;43.200;24.170;2023-07-30T07:07:10;4.22;;;1.63;;
26538;SDS011;14205;43.200;24.170;2023-07-30T07:09:35;2.65;;;1.40;;
26538;SDS011;14205;43.200;24.170;2023-07-30T07:12:01;2.40;;;1.50;;
26538;SDS011;14205;43.200;24.170;2023-07-30T07:14:26;2.95;;;1.60;;
26538;SDS011;14205;43.200;24.170;2023-07-30T11:11:02;4.53;;;2.17;;
26538;SDS011;14205;43.200;24.170;2023-07-30T11:13:28;3.03;;;2.30;;
26538;SDS011;14205;43.200;24.170;2023-07-30T11:15:54;7.13;;;2.53;;
26538;SDS011;14205;43.200;24.170;2023-07-30T11:18:19;4.72;;;2.50;;
26538;SDS011;14205;43.200;24.170;2023-07-30T11:20:45;5.50;;;2.47;;
26538;SDS011;14205;43.200;24.170;2023-07-30T11:23:20;3.55;;;2.13;;
26538;SDS011;14205;43.200;24.170;2023-07-30T11:25:50;4.85;;;2.15;;
26538;SDS011;14205;43.200;24.170;2023-07-30T11:31:10;5.70;;;2.60;;
26538;SDS011;14205;43.200;24.170;2023-07-30T11:33:44;5.00;;;2.55;;
26538;SDS011;14205;43.200;24.170;2023-07-30T11:36:15;7.35;;;3.17;;
26538;SDS011;14205;43.200;24.170;2023-07-30T11:38:43;3.50;;;2.58;;
26538;SDS011;14205;43.200;24.170;2023-07-30T11:41:10;3.53;;;2.78;;
26538;SDS011;14205;43.200;24.170;2023-07-30T11:43:37;4.28;;;2.83;;
26538;SDS011;14205;43.200;24.170;2023-07-30T11:46:11;5.10;;;3.55;;
26538;SDS011;14205;43.200;24.170;2023-07-30T11:48:42;5.93;;;2.92;;
26538;SDS011;14205;43.200;24.170;2023-07-30T11:51:29;3.33;;;2.70;;
26538;SDS011;14205;43.200;24.170;2023-07-30T11:53:55;3.55;;;2.70;;
26538;SDS011;14205;43.200;24.170;2023-07-30T11:56:30;5.10;;;3.08;;
26538;SDS011;14205;43.200;24.170;2023-07-30T11:58:57;5.05;;;3.03;;
26538;SDS011;14205;43.200;24.170;2023-07-30T12:01:27;6.57;;;3.00;;
26538;SDS011;14205;43.200;24.170;2023-07-30T12:03:55;3.65;;;2.65;;
26538;SDS011;14205;43.200;24.170;2023-07-30T12:06:21;5.00;;;2.58;;
26538;SDS011;14205;43.200;24.170;2023-07-30T12:08:51;6.35;;;3.05;;
26538;SDS011;14205;43.200;24.170;2023-07-30T12:11:17;5.38;;;3.03;;
26538;SDS011;14205;43.200;24.170;2023-07-30T12:13:46;3.55;;;2.92;;
26538;SDS011;14205;43.200;24.170;2023-07-30T12:16:12;3.15;;;2.80;;
26538;SDS011;14205;43.200;24.170;2023-07-30T12:18:39;3.45;;;2.88;;
26538;SDS011;14205;43.200;24.170;2023-07-30T12:21:05;11.23;;;3.80;;
26538;SDS011;14205;43.200;24.170;2023-07-30T12:23:36;5.93;;;3.60;;
26538;SDS011;14205;43.200;24.170;2023-07-30T12:26:02;3.55;;;3.20;;
26538;SDS011;14205;43.200;24.170;2023-07-30T12:28:33;3.83;;;3.10;;
26538;SDS011;14205;43.200;24.170;2023-07-30T12:30:59;4.88;;;2.90;;
26538;SDS011;14205;43.200;24.170;2023-07-30T12:33:25;4.40;;;2.90;;
26538;SDS011;14205;43.200;24.170;2023-07-30T12:35:51;3.20;;;2.90;;
26538;SDS011;14205;43.200;24.170;2023-07-30T12:38:16;5.97;;;2.75;;
26538;SDS011;14205;43.200;24.170;2023-07-30T12:40:41;5.80;;;3.80;;
26538;SDS011;14205;43.200;24.170;2023-07-30T12:43:07;6.13;;;3.15;;
26538;SDS011;14205;43.200;24.170;2023-07-30T12:45:34;5.13;;;3.70;;
26538;SDS011;14205;43.200;24.170;2023-07-30T12:48:00;4.80;;;3.10;;
26538;SDS011;14205;43.200;24.170;2023-07-30T12:50:26;6.15;;;3.20;;
26538;SDS011;14205;43.200;24.170;2023-07-30T12:52:51;5.85;;;3.22;;
26538;SDS011;14205;43.200;24.170;2023-07-30T12:55:17;3.45;;;2.72;;
26538;SDS011;14205;43.200;24.170;2023-07-30T12:57:42;3.30;;;2.80;;
26538;SDS011;14205;43.200;24.170;2023-07-30T13:00:08;3.45;;;3.00;;
26538;SDS011;14205;43.200;24.170;2023-07-30T13:02:34;6.53;;;4.00;;
26538;SDS011;14205;43.200;24.170;2023-07-30T13:05:00;4.22;;;3.70;;
26538;SDS011;14205;43.200;24.170;2023-07-30T13:07:25;3.88;;;3.30;;
26538;SDS011;14205;43.200;24.170;2023-07-30T13:10:02;4.78;;;3.20;;
26538;SDS011;14205;43.200;24.170;2023-07-30T13:12:32;4.90;;;2.90;;
26538;SDS011;14205;43.200;24.170;2023-07-30T13:14:58;3.35;;;2.83;;
26538;SDS011;14205;43.200;24.170;2023-07-30T13:17:23;3.83;;;2.80;;
26538;SDS011;14205;43.200;24.170;2023-07-30T13:19:49;8.43;;;4.05;;
26538;SDS011;14205;43.200;24.170;2023-07-30T13:22:14;6.72;;;3.78;;
26538;SDS011;14205;43.200;24.170;2023-07-30T13:24:40;5.25;;;3.58;;
26538;SDS011;14205;43.200;24.170;2023-07-30T13:27:05;4.03;;;3.30;;
26538;SDS011;14205;43.200;24.170;2023-07-30T13:29:31;4.35;;;3.28;;
26538;SDS011;14205;43.200;24.170;2023-07-30T13:31:56;5.57;;;3.25;;
26538;SDS011;14205;43.200;24.170;2023-07-30T13:34:22;4.22;;;3.03;;
26538;SDS011;14205;43.200;24.170;2023-07-30T13:36:47;5.53;;;3.35;;
26538;SDS011;14205;43.200;24.170;2023-07-30T13:39:12;5.43;;;3.17;;
26538;SDS011;14205;43.200;24.170;2023-07-30T13:41:38;5.85;;;2.80;;
26538;SDS011;14205;43.200;24.170;2023-07-30T13:44:03;4.18;;;3.22;;
26538;SDS011;14205;43.200;24.170;2023-07-30T13:46:29;4.53;;;3.08;;
26538;SDS011;14205;43.200;24.170;2023-07-30T13:48:54;4.03;;;3.22;;
26538;SDS011;14205;43.200;24.170;2023-07-30T13:51:20;4.15;;;3.13;;
26538;SDS011;14205;43.200;24.170;2023-07-30T13:53:45;6.63;;;4.10;;
26538;SDS011;14205;43.200;24.170;2023-07-30T13:56:10;3.05;;;2.72;;
26538;SDS011;14205;43.200;24.170;2023-07-30T13:58:36;4.72;;;3.10;;
26538;SDS011;14205;43.200;24.170;2023-07-30T14:01:02;5.70;;;2.80;;
26538;SDS011;14205;43.200;24.170;2023-07-30T14:03:27;3.97;;;3.00;;
26538;SDS011;14205;43.200;24.170;2023-07-30T14:05:53;4.55;;;3.25;;
26538;SDS011;14205;43.200;24.170;2023-07-30T14:08:19;5.25;;;3.03;;
26538;SDS011;14205;43.200;24.170;2023-07-30T14:10:44;4.82;;;3.25;;
26538;SDS011;14205;43.200;24.170;2023-07-30T14:13:09;4.00;;;2.65;;
26538;SDS011;14205;43.200;24.170;2023-07-30T14:15:35;5.78;;;2.90;;
26538;SDS011;14205;43.200;24.170;2023-07-30T14:18:00;3.35;;;2.72;;
26538;SDS011;14205;43.200;24.170;2023-07-30T14:20:25;4.00;;;3.10;;
26538;SDS011;14205;43.200;24.170;2023-07-30T14:22:51;3.50;;;3.08;;
26538;SDS011;14205;43.200;24.170;2023-07-30T14:25:19;5.63;;;2.80;;
26538;SDS011;14205;43.200;24.170;2023-07-30T14:27:44;6.38;;;2.83;;
26538;SDS011;14205;43.200;24.170;2023-07-30T14:30:10;4.60;;;3.05;;
26538;SDS011;14205;43.200;24.170;2023-07-30T14:32:36;5.38;;;2.70;;
26538;SDS011;14205;43.200;24.170;2023-07-30T14:35:01;3.50;;;2.92;;
26538;SDS011;14205;43.200;24.170;2023-07-30T14:37:27;4.88;;;2.70;;
26538;SDS011;14205;43.200;24.170;2023-07-30T14:39:52;3.83;;;2.72;;
26538;SDS011;14205;43.200;24.170;2023-07-30T14:42:18;3.47;;;2.97;;
26538;SDS011;14205;43.200;24.170;2023-07-30T14:44:43;5.22;;;2.67;;
26538;SDS011;14205;43.200;24.170;2023-07-30T14:47:09;5.00;;;2.92;;
26538;SDS011;14205;43.200;24.170;2023-07-30T14:49:35;5.70;;;3.03;;
26538;SDS011;14205;43.200;24.170;2023-07-30T14:52:02;3.92;;;3.10;;
26538;SDS011;14205;43.200;24.170;2023-07-30T14:54:28;5.18;;;3.00;;
26538;SDS011;14205;43.200;24.170;2023-07-30T14:56:53;5.18;;;2.80;;
26538;SDS011;14205;43.200;24.170;2023-07-30T14:59:20;5.18;;;3.55;;
26538;SDS011;14205;43.200;24.170;2023-07-30T15:01:45;4.43;;;3.20;;
26538;SDS011;14205;43.200;24.170;2023-07-30T15:04:11;3.35;;;2.55;;
26538;SDS011;14205;43.200;24.170;2023-07-30T15:06:36;4.93;;;3.63;;
26538;SDS011;14205;43.200;24.170;2023-07-30T15:09:02;4.78;;;2.80;;
26538;SDS011;14205;43.200;24.170;2023-07-30T15:11:27;5.82;;;4.03;;
26538;SDS011;14205;43.200;24.170;2023-07-30T15:13:53;5.32;;;3.70;;
26538;SDS011;14205;43.200;24.170;2023-07-30T15:16:18;5.10;;;2.83;;
26538;SDS011;14205;43.200;24.170;2023-07-30T15:18:44;5.47;;;3.10;;
26538;SDS011;14205;43.200;24.170;2023-07-30T15:21:13;4.55;;;3.22;;
26538;SDS011;14205;43.200;24.170;2023-07-30T15:23:38;8.52;;;3.60;;
26538;SDS011;14205;43.200;24.170;2023-07-30T15:26:04;5.18;;;3.42;;
26538;SDS011;14205;43.200;24.170;2023-07-30T15:28:29;4.95;;;3.70;;
26538;SDS011;14205;43.200;24.170;2023-07-30T15:30:54;5.70;;;3.60;;
26538;SDS011;14205;43.200;24.170;2023-07-30T15:33:20;6.65;;;3.70;;
26538;SDS011;14205;43.200;24.170;2023-07-30T15:35:45;4.82;;;3.58;;
26538;SDS011;14205;43.200;24.170;2023-07-30T15:38:11;9.88;;;3.75;;
26538;SDS011;14205;43.200;24.170;2023-07-30T15:40:36;5.03;;;3.60;;
26538;SDS011;14205;43.200;24.170;2023-07-30T15:43:02;7.82;;;3.33;;
26538;SDS011;14205;43.200;24.170;2023-07-30T15:45:28;6.95;;;3.38;;
26538;SDS011;14205;43.200;24.170;2023-07-30T15:47:54;7.93;;;3.33;;
26538;SDS011;14205;43.200;24.170;2023-07-30T15:50:20;5.30;;;3.47;;
26538;SDS011;14205;43.200;24.170;2023-07-30T15:52:49;9.63;;;3.30;;
26538;SDS011;14205;43.200;24.170;2023-07-30T15:55:15;7.88;;;3.65;;
26538;SDS011;14205;43.200;24.170;2023-07-30T15:57:41;5.63;;;4.15;;
26538;SDS011;14205;43.200;24.170;2023-07-30T16:00:06;8.30;;;3.45;;
26538;SDS011;14205;43.200;24.170;2023-07-30T16:02:33;5.25;;;3.22;;
26538;SDS011;14205;43.200;24.170;2023-07-30T16:04:58;6.60;;;3.55;;
26538;SDS011;14205;43.200;24.170;2023-07-30T16:07:24;6.85;;;4.22;;
26538;SDS011;14205;43.200;24.170;2023-07-30T16:09:49;4.63;;;3.50;;
26538;SDS011;14205;43.200;24.170;2023-07-30T16:12:15;4.45;;;3.35;;
26538;SDS011;14205;43.200;24.170;2023-07-30T16:14:40;10.50;;;3.72;;
26538;SDS011;14205;43.200;24.170;2023-07-30T16:17:06;6.50;;;3.40;;
26538;SDS011;14205;43.200;24.170;2023-07-30T16:19:31;7.82;;;4.03;;
26538;SDS011;14205;43.200;24.170;2023-07-30T16:21:57;11.18;;;4.75;;
26538;SDS011;14205;43.200;24.170;2023-07-30T16:24:23;10.27;;;4.50;;
26538;SDS011;14205;43.200;24.170;2023-07-30T16:26:49;3.90;;;3.15;;
26538;SDS011;14205;43.200;24.170;2023-07-30T16:29:14;6.25;;;3.30;;
26538;SDS011;14205;43.200;24.170;2023-07-30T16:31:40;4.55;;;3.53;;
26538;SDS011;14205;43.200;24.170;2023-07-30T16:34:05;13.10;;;4.95;;
26538;SDS011;14205;43.200;24.170;2023-07-30T16:36:30;10.20;;;5.78;;
26538;SDS011;14205;43.200;24.170;2023-07-30T16:38:56;8.18;;;5.10;;
26538;SDS011;14205;43.200;24.170;2023-07-30T16:41:22;13.73;;;5.22;;
26538;SDS011;14205;43.200;24.170;2023-07-30T16:43:48;9.20;;;4.90;;
26538;SDS011;14205;43.200;24.170;2023-07-30T16:46:13;6.95;;;3.50;;
26538;SDS011;14205;43.200;24.170;2023-07-30T16:48:39;7.38;;;3.60;;
26538;SDS011;14205;43.200;24.170;2023-07-30T16:51:04;13.13;;;6.32;;
26538;SDS011;14205;43.200;24.170;2023-07-30T16:53:30;11.68;;;3.72;;
26538;SDS011;14205;43.200;24.170;2023-07-30T16:55:55;8.85;;;4.00;;
26538;SDS011;14205;43.200;24.170;2023-07-30T16:58:21;5.88;;;4.28;;
26538;SDS011;14205;43.200;24.170;2023-07-30T17:00:47;8.75;;;4.15;;
26538;SDS011;14205;43.200;24.170;2023-07-30T17:03:13;8.30;;;3.60;;
26538;SDS011;14205;43.200;24.170;2023-07-30T17:05:38;4.32;;;3.50;;
26538;SDS011;14205;43.200;24.170;2023-07-30T17:08:03;6.90;;;3.80;;
26538;SDS011;14205;43.200;24.170;2023-07-30T17:10:30;7.78;;;4.00;;
26538;SDS011;14205;43.200;24.170;2023-07-30T17:12:55;6.95;;;3.88;;
26538;SDS011;14205;43.200;24.170;2023-07-30T17:15:21;7.85;;;4.55;;
26538;SDS011;14205;43.200;24.170;2023-07-30T17:17:47;7.50;;;4.32;;
26538;SDS011;14205;43.200;24.170;2023-07-30T17:20:13;11.48;;;5.05;;
26538;SDS011;14205;43.200;24.170;2023-07-30T17:22:39;10.93;;;4.53;;
26538;SDS011;14205;43.200;24.170;2023-07-30T17:25:05;6.85;;;4.00;;
26538;SDS011;14205;43.200;24.170;2023-07-30T17:27:31;8.57;;;4.07;;
26538;SDS011;14205;43.200;24.170;2023-07-30T17:29:56;7.65;;;4.10;;
26538;SDS011;14205;43.200;24.170;2023-07-30T17:32:26;6.25;;;3.53;;
26538;SDS011;14205;43.200;24.170;2023-07-30T17:34:52;7.35;;;4.10;;
26538;SDS011;14205;43.200;24.170;2023-07-30T17:37:19;6.47;;;3.75;;
26538;SDS011;14205;43.200;24.170;2023-07-30T17:39:45;8.75;;;3.92;;
26538;SDS011;14205;43.200;24.170;2023-07-30T17:42:10;7.68;;;3.90;;
26538;SDS011;14205;43.200;24.170;2023-07-30T17:44:36;10.40;;;4.28;;
26538;SDS011;14205;43.200;24.170;2023-07-30T17:47:02;10.05;;;3.92;;
26538;SDS011;14205;43.200;24.170;2023-07-30T17:49:27;6.50;;;3.63;;
26538;SDS011;14205;43.200;24.170;2023-07-30T17:51:53;10.68;;;4.38;;
26538;SDS011;14205;43.200;24.170;2023-07-30T17:54:18;10.23;;;4.53;;
26538;SDS011;14205;43.200;24.170;2023-07-30T17:56:44;9.52;;;4.28;;
26538;SDS011;14205;43.200;24.170;2023-07-30T17:59:09;13.77;;;4.18;;
26538;SDS011;14205;43.200;24.170;2023-07-30T18:01:38;11.75;;;4.40;;
26538;SDS011;14205;43.200;24.170;2023-07-30T18:04:04;8.20;;;4.00;;
26538;SDS011;14205;43.200;24.170;2023-07-30T18:06:29;12.80;;;4.43;;
26538;SDS011;14205;43.200;24.170;2023-07-30T18:08:58;6.47;;;4.32;;
26538;SDS011;14205;43.200;24.170;2023-07-30T18:11:24;6.68;;;4.22;;
26538;SDS011;14205;43.200;24.170;2023-07-30T18:13:50;7.57;;;4.35;;
26538;SDS011;14205;43.200;24.170;2023-07-30T18:16:15;8.30;;;4.68;;
26538;SDS011;14205;43.200;24.170;2023-07-30T18:18:40;12.48;;;4.60;;
26538;SDS011;14205;43.200;24.170;2023-07-30T18:21:06;10.40;;;4.70;;
26538;SDS011;14205;43.200;24.170;2023-07-30T18:23:31;10.43;;;4.80;;
26538;SDS011;14205;43.200;24.170;2023-07-30T18:25:57;9.02;;;5.15;;